sensor_id;sensor_type;location;lat;lon;timestamp;P1;durP1;ratioP1;P2;durP2;ratioP2
16101;SDS011;56411;52.964;10.540;2023-02-24T00:00:25;21.87;;;3.50;;
16101;SDS011;56411;52.964;10.540;2023-02-24T00:03:03;18.63;;;3.33;;
16101;SDS011;56411;52.964;10.540;2023-02-24T00:05:35;20.23;;;3.60;;
16101;SDS011;56411;52.964;10.540;2023-02-24T00:08:04;17.43;;;2.80;;
16101;SDS011;56411;52.964;10.540;2023-02-24T00:10:31;15.73;;;3.50;;
16101;SDS011;56411;52.964;10.540;2023-02-24T00:13:01;14.13;;;3.03;;
16101;SDS011;56411;52.964;10.540;2023-02-24T00:15:28;15.30;;;2.87;;
16101;SDS011;56411;52.964;10.540;2023-02-24T00:17:55;14.17;;;3.10;;
16101;SDS011;56411;52.964;10.540;2023-02-24T00:20:32;16.63;;;3.43;;
16101;SDS011;56411;52.964;10.540;2023-02-24T00:22:59;18.10;;;3.70;;
16101;SDS011;56411;52.964;10.540;2023-02-24T00:25:27;15.93;;;3.10;;
16101;SDS011;56411;52.964;10.540;2023-02-24T00:27:54;16.70;;;3.17;;
16101;SDS011;56411;52.964;10.540;2023-02-24T00:30:25;16.53;;;3.00;;
16101;SDS011;56411;52.964;10.540;2023-02-24T00:32:53;18.27;;;3.07;;
16101;SDS011;56411;52.964;10.540;2023-02-24T00:35:25;15.40;;;3.37;;
16101;SDS011;56411;52.964;10.540;2023-02-24T00:37:54;17.50;;;2.97;;
16101;SDS011;56411;52.964;10.540;2023-02-24T00:40:22;15.67;;;3.30;;
16101;SDS011;56411;52.964;10.540;2023-02-24T00:42:49;14.97;;;2.90;;
16101;SDS011;56411;52.964;10.540;2023-02-24T00:45:18;20.97;;;3.43;;
16101;SDS011;56411;52.964;10.540;2023-02-24T00:47:45;15.93;;;2.73;;
16101;SDS011;56411;52.964;10.540;2023-02-24T00:50:11;15.87;;;3.10;;
16101;SDS011;56411;52.964;10.540;2023-02-24T00:52:39;17.97;;;3.17;;
16101;SDS011;56411;52.964;10.540;2023-02-24T00:55:09;15.20;;;2.80;;
16101;SDS011;56411;52.964;10.540;2023-02-24T00:57:39;14.93;;;3.10;;
16101;SDS011;56411;52.964;10.540;2023-02-24T01:00:07;15.03;;;2.90;;
16101;SDS011;56411;52.964;10.540;2023-02-24T01:02:40;19.40;;;3.53;;
16101;SDS011;56411;52.964;10.540;2023-02-24T01:05:09;14.43;;;3.00;;
16101;SDS011;56411;52.964;10.540;2023-02-24T01:07:37;18.57;;;3.23;;
16101;SDS011;56411;52.964;10.540;2023-02-24T01:10:04;19.23;;;3.57;;
16101;SDS011;56411;52.964;10.540;2023-02-24T01:12:34;15.17;;;2.83;;
16101;SDS011;56411;52.964;10.540;2023-02-24T01:15:03;13.63;;;3.30;;
16101;SDS011;56411;52.964;10.540;2023-02-24T01:17:34;14.80;;;2.83;;
16101;SDS011;56411;52.964;10.540;2023-02-24T01:20:01;17.03;;;4.00;;
16101;SDS011;56411;52.964;10.540;2023-02-24T01:22:40;18.27;;;3.63;;
16101;SDS011;56411;52.964;10.540;2023-02-24T01:25:07;13.80;;;2.90;;
16101;SDS011;56411;52.964;10.540;2023-02-24T01:27:36;15.60;;;3.13;;
16101;SDS011;56411;52.964;10.540;2023-02-24T01:30:04;15.50;;;3.20;;
16101;SDS011;56411;52.964;10.540;2023-02-24T01:32:33;20.90;;;4.43;;
16101;SDS011;56411;52.964;10.540;2023-02-24T01:35:01;16.33;;;3.60;;
16101;SDS011;56411;52.964;10.540;2023-02-24T01:37:27;23.27;;;4.33;;
16101;SDS011;56411;52.964;10.540;2023-02-24T01:39:54;14.17;;;2.70;;
16101;SDS011;56411;52.964;10.540;2023-02-24T01:42:21;16.73;;;3.17;;
16101;SDS011;56411;52.964;10.540;2023-02-24T01:45:04;11.17;;;3.17;;
16101;SDS011;56411;52.964;10.540;2023-02-24T01:47:39;12.27;;;2.63;;
16101;SDS011;56411;52.964;10.540;2023-02-24T01:50:11;11.47;;;2.70;;
16101;SDS011;56411;52.964;10.540;2023-02-24T01:52:39;17.97;;;4.53;;
16101;SDS011;56411;52.964;10.540;2023-02-24T01:55:10;13.77;;;3.80;;
16101;SDS011;56411;52.964;10.540;2023-02-24T01:57:45;12.60;;;2.60;;
16101;SDS011;56411;52.964;10.540;2023-02-24T02:00:15;13.07;;;2.70;;
16101;SDS011;56411;52.964;10.540;2023-02-24T02:03:06;13.53;;;2.50;;
16101;SDS011;56411;52.964;10.540;2023-02-24T02:05:37;12.90;;;3.10;;
16101;SDS011;56411;52.964;10.540;2023-02-24T02:08:06;14.43;;;2.60;;
16101;SDS011;56411;52.964;10.540;2023-02-24T02:10:34;14.53;;;2.87;;
16101;SDS011;56411;52.964;10.540;2023-02-24T02:13:03;12.90;;;2.80;;
16101;SDS011;56411;52.964;10.540;2023-02-24T02:15:33;13.23;;;2.80;;
16101;SDS011;56411;52.964;10.540;2023-02-24T02:18:09;13.60;;;2.70;;
16101;SDS011;56411;52.964;10.540;2023-02-24T02:20:52;12.90;;;2.70;;
16101;SDS011;56411;52.964;10.540;2023-02-24T02:23:53;16.40;;;2.83;;
16101;SDS011;56411;52.964;10.540;2023-02-24T02:26:38;11.77;;;2.77;;
16101;SDS011;56411;52.964;10.540;2023-02-24T02:29:32;13.50;;;2.50;;
16101;SDS011;56411;52.964;10.540;2023-02-24T02:32:36;12.40;;;2.50;;
16101;SDS011;56411;52.964;10.540;2023-02-24T02:35:31;11.93;;;2.60;;
16101;SDS011;56411;52.964;10.540;2023-02-24T02:38:05;13.77;;;2.63;;
16101;SDS011;56411;52.964;10.540;2023-02-24T02:40:41;15.70;;;3.80;;
16101;SDS011;56411;52.964;10.540;2023-02-24T02:43:14;12.00;;;2.90;;
16101;SDS011;56411;52.964;10.540;2023-02-24T02:45:50;15.43;;;2.67;;
16101;SDS011;56411;52.964;10.540;2023-02-24T02:48:23;17.53;;;3.07;;
16101;SDS011;56411;52.964;10.540;2023-02-24T02:50:57;12.90;;;2.40;;
16101;SDS011;56411;52.964;10.540;2023-02-24T02:53:30;11.93;;;2.40;;
16101;SDS011;56411;52.964;10.540;2023-02-24T02:56:02;11.43;;;2.90;;
16101;SDS011;56411;52.964;10.540;2023-02-24T02:58:36;15.00;;;2.80;;
16101;SDS011;56411;52.964;10.540;2023-02-24T03:01:07;12.30;;;2.73;;
16101;SDS011;56411;52.964;10.540;2023-02-24T03:03:37;15.23;;;2.67;;
16101;SDS011;56411;52.964;10.540;2023-02-24T03:06:08;9.13;;;2.40;;
16101;SDS011;56411;52.964;10.540;2023-02-24T03:08:40;14.07;;;2.57;;
16101;SDS011;56411;52.964;10.540;2023-02-24T03:11:16;12.70;;;2.67;;
16101;SDS011;56411;52.964;10.540;2023-02-24T03:13:45;10.40;;;2.80;;
16101;SDS011;56411;52.964;10.540;2023-02-24T03:16:16;11.30;;;2.70;;
16101;SDS011;56411;52.964;10.540;2023-02-24T03:18:45;9.23;;;2.67;;
16101;SDS011;56411;52.964;10.540;2023-02-24T03:21:18;16.63;;;2.73;;
16101;SDS011;56411;52.964;10.540;2023-02-24T03:23:53;7.80;;;2.20;;
16101;SDS011;56411;52.964;10.540;2023-02-24T03:26:21;12.23;;;2.47;;
16101;SDS011;56411;52.964;10.540;2023-02-24T03:28:55;11.60;;;2.60;;
16101;SDS011;56411;52.964;10.540;2023-02-24T03:31:30;7.67;;;2.27;;
16101;SDS011;56411;52.964;10.540;2023-02-24T03:34:04;10.23;;;2.47;;
16101;SDS011;56411;52.964;10.540;2023-02-24T03:36:37;11.20;;;2.23;;
16101;SDS011;56411;52.964;10.540;2023-02-24T03:39:04;12.23;;;2.20;;
16101;SDS011;56411;52.964;10.540;2023-02-24T03:41:36;10.03;;;2.40;;
16101;SDS011;56411;52.964;10.540;2023-02-24T03:44:09;7.90;;;2.27;;
16101;SDS011;56411;52.964;10.540;2023-02-24T03:46:39;12.20;;;2.50;;
16101;SDS011;56411;52.964;10.540;2023-02-24T03:49:08;11.13;;;2.20;;
16101;SDS011;56411;52.964;10.540;2023-02-24T03:51:42;10.80;;;2.30;;
16101;SDS011;56411;52.964;10.540;2023-02-24T03:54:24;9.57;;;2.10;;
16101;SDS011;56411;52.964;10.540;2023-02-24T03:57:04;12.37;;;2.80;;
16101;SDS011;56411;52.964;10.540;2023-02-24T03:59:44;13.23;;;2.47;;
16101;SDS011;56411;52.964;10.540;2023-02-24T04:02:19;10.20;;;2.37;;
16101;SDS011;56411;52.964;10.540;2023-02-24T04:04:50;12.10;;;2.73;;
16101;SDS011;56411;52.964;10.540;2023-02-24T04:07:24;12.30;;;2.40;;
16101;SDS011;56411;52.964;10.540;2023-02-24T04:10:02;11.03;;;2.57;;
16101;SDS011;56411;52.964;10.540;2023-02-24T04:12:34;10.50;;;2.33;;
16101;SDS011;56411;52.964;10.540;2023-02-24T04:15:11;13.70;;;2.57;;
16101;SDS011;56411;52.964;10.540;2023-02-24T04:17:45;11.77;;;3.03;;
16101;SDS011;56411;52.964;10.540;2023-02-24T04:20:16;11.70;;;2.67;;
16101;SDS011;56411;52.964;10.540;2023-02-24T04:22:48;12.63;;;3.20;;
16101;SDS011;56411;52.964;10.540;2023-02-24T04:25:19;11.80;;;3.13;;
16101;SDS011;56411;52.964;10.540;2023-02-24T04:27:49;9.03;;;2.80;;
16101;SDS011;56411;52.964;10.540;2023-02-24T04:30:17;11.83;;;3.33;;
16101;SDS011;56411;52.964;10.540;2023-02-24T04:32:45;12.30;;;3.00;;
16101;SDS011;56411;52.964;10.540;2023-02-24T04:35:13;11.70;;;3.10;;
16101;SDS011;56411;52.964;10.540;2023-02-24T04:37:42;14.03;;;3.20;;
16101;SDS011;56411;52.964;10.540;2023-02-24T04:40:11;14.17;;;3.07;;
16101;SDS011;56411;52.964;10.540;2023-02-24T04:42:42;9.07;;;2.80;;
16101;SDS011;56411;52.964;10.540;2023-02-24T04:45:13;9.57;;;2.90;;
16101;SDS011;56411;52.964;10.540;2023-02-24T04:47:42;12.27;;;2.97;;
16101;SDS011;56411;52.964;10.540;2023-02-24T04:50:13;13.93;;;3.57;;
16101;SDS011;56411;52.964;10.540;2023-02-24T04:52:47;9.60;;;2.77;;
16101;SDS011;56411;52.964;10.540;2023-02-24T04:55:17;12.00;;;2.43;;
16101;SDS011;56411;52.964;10.540;2023-02-24T04:57:46;15.40;;;2.90;;
16101;SDS011;56411;52.964;10.540;2023-02-24T05:00:14;12.80;;;2.97;;
16101;SDS011;56411;52.964;10.540;2023-02-24T05:02:46;9.83;;;2.47;;
16101;SDS011;56411;52.964;10.540;2023-02-24T05:05:14;11.53;;;2.70;;
16101;SDS011;56411;52.964;10.540;2023-02-24T05:07:41;11.77;;;2.53;;
16101;SDS011;56411;52.964;10.540;2023-02-24T05:10:12;8.70;;;2.37;;
16101;SDS011;56411;52.964;10.540;2023-02-24T05:12:41;9.87;;;1.93;;
16101;SDS011;56411;52.964;10.540;2023-02-24T05:15:09;9.13;;;2.63;;
16101;SDS011;56411;52.964;10.540;2023-02-24T05:17:37;11.00;;;2.20;;
16101;SDS011;56411;52.964;10.540;2023-02-24T05:20:06;10.53;;;2.97;;
16101;SDS011;56411;52.964;10.540;2023-02-24T05:22:51;9.73;;;2.20;;
16101;SDS011;56411;52.964;10.540;2023-02-24T05:25:19;10.77;;;2.50;;
16101;SDS011;56411;52.964;10.540;2023-02-24T05:27:48;10.70;;;2.30;;
16101;SDS011;56411;52.964;10.540;2023-02-24T05:30:16;6.93;;;2.33;;
16101;SDS011;56411;52.964;10.540;2023-02-24T05:32:43;12.43;;;2.30;;
16101;SDS011;56411;52.964;10.540;2023-02-24T05:35:10;12.27;;;2.70;;
16101;SDS011;56411;52.964;10.540;2023-02-24T05:37:38;8.73;;;2.30;;
16101;SDS011;56411;52.964;10.540;2023-02-24T05:40:09;10.13;;;2.33;;
16101;SDS011;56411;52.964;10.540;2023-02-24T05:42:39;10.17;;;2.20;;
16101;SDS011;56411;52.964;10.540;2023-02-24T05:45:11;10.77;;;2.33;;
16101;SDS011;56411;52.964;10.540;2023-02-24T05:47:38;10.77;;;2.30;;
16101;SDS011;56411;52.964;10.540;2023-02-24T05:50:10;7.67;;;2.20;;
16101;SDS011;56411;52.964;10.540;2023-02-24T05:52:37;7.80;;;2.33;;
16101;SDS011;56411;52.964;10.540;2023-02-24T05:55:05;7.17;;;2.30;;
16101;SDS011;56411;52.964;10.540;2023-02-24T05:57:38;10.17;;;2.20;;
16101;SDS011;56411;52.964;10.540;2023-02-24T06:00:06;11.27;;;2.60;;
16101;SDS011;56411;52.964;10.540;2023-02-24T06:02:41;6.03;;;2.30;;
16101;SDS011;56411;52.964;10.540;2023-02-24T06:05:14;10.20;;;2.40;;
16101;SDS011;56411;52.964;10.540;2023-02-24T06:07:54;9.43;;;2.83;;
16101;SDS011;56411;52.964;10.540;2023-02-24T06:10:29;6.93;;;2.30;;
16101;SDS011;56411;52.964;10.540;2023-02-24T06:12:58;11.97;;;2.67;;
16101;SDS011;56411;52.964;10.540;2023-02-24T06:15:26;11.57;;;2.60;;
16101;SDS011;56411;52.964;10.540;2023-02-24T06:17:55;8.77;;;2.80;;
16101;SDS011;56411;52.964;10.540;2023-02-24T06:20:25;10.40;;;2.40;;
16101;SDS011;56411;52.964;10.540;2023-02-24T06:22:52;9.80;;;2.60;;
16101;SDS011;56411;52.964;10.540;2023-02-24T06:25:23;11.27;;;2.53;;
16101;SDS011;56411;52.964;10.540;2023-02-24T06:27:51;10.80;;;3.40;;
16101;SDS011;56411;52.964;10.540;2023-02-24T06:30:20;9.17;;;2.73;;
16101;SDS011;56411;52.964;10.540;2023-02-24T06:32:48;9.73;;;2.63;;
16101;SDS011;56411;52.964;10.540;2023-02-24T06:35:17;11.83;;;2.60;;
16101;SDS011;56411;52.964;10.540;2023-02-24T06:37:45;9.57;;;2.40;;
16101;SDS011;56411;52.964;10.540;2023-02-24T06:40:12;9.27;;;2.63;;
16101;SDS011;56411;52.964;10.540;2023-02-24T06:42:44;11.53;;;2.80;;
16101;SDS011;56411;52.964;10.540;2023-02-24T06:45:13;11.83;;;2.53;;
16101;SDS011;56411;52.964;10.540;2023-02-24T06:47:41;8.23;;;2.60;;
16101;SDS011;56411;52.964;10.540;2023-02-24T06:50:12;14.20;;;2.50;;
16101;SDS011;56411;52.964;10.540;2023-02-24T06:52:45;11.10;;;2.60;;
16101;SDS011;56411;52.964;10.540;2023-02-24T06:55:14;15.57;;;2.90;;
16101;SDS011;56411;52.964;10.540;2023-02-24T06:57:51;10.37;;;3.10;;
16101;SDS011;56411;52.964;10.540;2023-02-24T07:00:22;7.70;;;2.50;;
16101;SDS011;56411;52.964;10.540;2023-02-24T07:03:01;9.67;;;2.47;;
16101;SDS011;56411;52.964;10.540;2023-02-24T07:05:39;7.40;;;2.20;;
16101;SDS011;56411;52.964;10.540;2023-02-24T07:08:09;8.87;;;2.20;;
16101;SDS011;56411;52.964;10.540;2023-02-24T07:10:36;11.50;;;2.50;;
16101;SDS011;56411;52.964;10.540;2023-02-24T07:13:04;8.03;;;2.53;;
16101;SDS011;56411;52.964;10.540;2023-02-24T07:15:33;11.30;;;2.33;;
16101;SDS011;56411;52.964;10.540;2023-02-24T07:18:01;10.93;;;2.87;;
16101;SDS011;56411;52.964;10.540;2023-02-24T07:20:28;11.93;;;2.63;;
16101;SDS011;56411;52.964;10.540;2023-02-24T07:22:59;10.63;;;2.50;;
16101;SDS011;56411;52.964;10.540;2023-02-24T07:25:28;10.60;;;2.30;;
16101;SDS011;56411;52.964;10.540;2023-02-24T07:27:58;10.10;;;2.10;;
16101;SDS011;56411;52.964;10.540;2023-02-24T07:30:27;16.63;;;2.90;;
16101;SDS011;56411;52.964;10.540;2023-02-24T07:32:55;8.97;;;2.20;;
16101;SDS011;56411;52.964;10.540;2023-02-24T07:35:22;12.10;;;2.60;;
16101;SDS011;56411;52.964;10.540;2023-02-24T07:37:49;10.33;;;2.50;;
16101;SDS011;56411;52.964;10.540;2023-02-24T07:40:17;11.50;;;2.50;;
16101;SDS011;56411;52.964;10.540;2023-02-24T07:42:47;7.63;;;2.10;;
16101;SDS011;56411;52.964;10.540;2023-02-24T07:45:14;11.60;;;2.13;;
16101;SDS011;56411;52.964;10.540;2023-02-24T07:47:41;13.97;;;3.60;;
16101;SDS011;56411;52.964;10.540;2023-02-24T07:50:10;8.77;;;2.20;;
16101;SDS011;56411;52.964;10.540;2023-02-24T07:52:38;7.83;;;2.23;;
16101;SDS011;56411;52.964;10.540;2023-02-24T07:55:06;9.70;;;2.47;;
16101;SDS011;56411;52.964;10.540;2023-02-24T07:57:34;12.37;;;2.40;;
16101;SDS011;56411;52.964;10.540;2023-02-24T08:00:04;6.20;;;1.83;;
16101;SDS011;56411;52.964;10.540;2023-02-24T08:02:42;10.30;;;2.33;;
16101;SDS011;56411;52.964;10.540;2023-02-24T08:05:10;9.63;;;2.30;;
16101;SDS011;56411;52.964;10.540;2023-02-24T08:07:37;7.23;;;2.33;;
16101;SDS011;56411;52.964;10.540;2023-02-24T08:10:05;11.00;;;2.30;;
16101;SDS011;56411;52.964;10.540;2023-02-24T08:12:38;10.80;;;2.10;;
16101;SDS011;56411;52.964;10.540;2023-02-24T08:15:10;13.20;;;2.37;;
16101;SDS011;56411;52.964;10.540;2023-02-24T08:17:48;9.20;;;2.27;;
16101;SDS011;56411;52.964;10.540;2023-02-24T08:20:17;10.07;;;2.40;;
16101;SDS011;56411;52.964;10.540;2023-02-24T08:22:49;11.43;;;2.43;;
16101;SDS011;56411;52.964;10.540;2023-02-24T08:25:17;10.27;;;2.50;;
16101;SDS011;56411;52.964;10.540;2023-02-24T08:27:47;12.23;;;2.80;;
16101;SDS011;56411;52.964;10.540;2023-02-24T08:30:22;17.07;;;2.80;;
16101;SDS011;56411;52.964;10.540;2023-02-24T08:32:54;14.00;;;2.90;;
16101;SDS011;56411;52.964;10.540;2023-02-24T08:35:24;10.03;;;2.70;;
16101;SDS011;56411;52.964;10.540;2023-02-24T08:37:57;9.53;;;2.53;;
16101;SDS011;56411;52.964;10.540;2023-02-24T08:40:29;14.03;;;2.83;;
16101;SDS011;56411;52.964;10.540;2023-02-24T08:43:14;7.90;;;2.90;;
16101;SDS011;56411;52.964;10.540;2023-02-24T08:45:51;9.53;;;3.20;;
16101;SDS011;56411;52.964;10.540;2023-02-24T08:48:22;14.27;;;3.50;;
16101;SDS011;56411;52.964;10.540;2023-02-24T08:50:57;8.33;;;2.53;;
16101;SDS011;56411;52.964;10.540;2023-02-24T08:53:26;9.23;;;2.60;;
16101;SDS011;56411;52.964;10.540;2023-02-24T08:55:56;15.60;;;3.33;;
16101;SDS011;56411;52.964;10.540;2023-02-24T08:58:24;12.80;;;3.30;;
16101;SDS011;56411;52.964;10.540;2023-02-24T09:00:53;14.50;;;4.00;;
16101;SDS011;56411;52.964;10.540;2023-02-24T09:03:23;11.67;;;3.43;;
16101;SDS011;56411;52.964;10.540;2023-02-24T09:05:58;13.13;;;3.63;;
16101;SDS011;56411;52.964;10.540;2023-02-24T09:08:29;10.60;;;3.33;;
16101;SDS011;56411;52.964;10.540;2023-02-24T09:11:03;12.57;;;3.27;;
16101;SDS011;56411;52.964;10.540;2023-02-24T09:13:38;9.47;;;3.70;;
16101;SDS011;56411;52.964;10.540;2023-02-24T09:16:17;8.80;;;3.23;;
16101;SDS011;56411;52.964;10.540;2023-02-24T09:18:45;11.87;;;3.40;;
16101;SDS011;56411;52.964;10.540;2023-02-24T09:21:32;9.23;;;3.23;;
16101;SDS011;56411;52.964;10.540;2023-02-24T09:24:30;12.10;;;3.37;;
16101;SDS011;56411;52.964;10.540;2023-02-24T09:26:57;15.73;;;3.87;;
16101;SDS011;56411;52.964;10.540;2023-02-24T09:29:24;13.43;;;3.93;;
16101;SDS011;56411;52.964;10.540;2023-02-24T09:32:00;12.17;;;3.67;;
16101;SDS011;56411;52.964;10.540;2023-02-24T09:34:31;10.17;;;3.37;;
16101;SDS011;56411;52.964;10.540;2023-02-24T09:36:59;10.20;;;3.60;;
16101;SDS011;56411;52.964;10.540;2023-02-24T09:39:28;10.63;;;3.43;;
16101;SDS011;56411;52.964;10.540;2023-02-24T09:42:21;7.97;;;3.40;;
16101;SDS011;56411;52.964;10.540;2023-02-24T09:45:12;8.77;;;3.10;;
16101;SDS011;56411;52.964;10.540;2023-02-24T09:47:58;11.07;;;3.60;;
16101;SDS011;56411;52.964;10.540;2023-02-24T09:50:34;9.37;;;3.60;;
16101;SDS011;56411;52.964;10.540;2023-02-24T09:53:25;11.73;;;3.43;;
16101;SDS011;56411;52.964;10.540;2023-02-24T09:56:04;8.10;;;3.00;;
16101;SDS011;56411;52.964;10.540;2023-02-24T09:58:41;9.07;;;3.63;;
16101;SDS011;56411;52.964;10.540;2023-02-24T10:01:22;9.50;;;3.93;;
16101;SDS011;56411;52.964;10.540;2023-02-24T10:04:02;11.10;;;3.70;;
16101;SDS011;56411;52.964;10.540;2023-02-24T10:06:38;9.50;;;4.00;;
16101;SDS011;56411;52.964;10.540;2023-02-24T10:09:09;10.70;;;4.13;;
16101;SDS011;56411;52.964;10.540;2023-02-24T10:11:48;12.03;;;4.23;;
16101;SDS011;56411;52.964;10.540;2023-02-24T10:14:28;8.83;;;4.00;;
16101;SDS011;56411;52.964;10.540;2023-02-24T10:17:06;10.13;;;4.10;;
16101;SDS011;56411;52.964;10.540;2023-02-24T10:19:50;11.80;;;4.10;;
16101;SDS011;56411;52.964;10.540;2023-02-24T10:22:37;12.63;;;4.60;;
16101;SDS011;56411;52.964;10.540;2023-02-24T10:28:06;10.90;;;4.77;;
16101;SDS011;56411;52.964;10.540;2023-02-24T10:30:48;10.47;;;5.10;;
16101;SDS011;56411;52.964;10.540;2023-02-24T10:33:34;12.20;;;5.23;;
16101;SDS011;56411;52.964;10.540;2023-02-24T10:36:08;10.60;;;4.93;;
16101;SDS011;56411;52.964;10.540;2023-02-24T10:38:42;10.00;;;4.67;;
16101;SDS011;56411;52.964;10.540;2023-02-24T10:41:12;11.07;;;5.07;;
16101;SDS011;56411;52.964;10.540;2023-02-24T10:43:39;12.17;;;5.17;;
16101;SDS011;56411;52.964;10.540;2023-02-24T10:46:20;13.17;;;5.67;;
16101;SDS011;56411;52.964;10.540;2023-02-24T10:48:51;12.70;;;5.60;;
16101;SDS011;56411;52.964;10.540;2023-02-24T10:51:27;10.83;;;5.43;;
16101;SDS011;56411;52.964;10.540;2023-02-24T10:54:04;12.53;;;6.03;;
16101;SDS011;56411;52.964;10.540;2023-02-24T10:56:47;12.43;;;5.83;;
16101;SDS011;56411;52.964;10.540;2023-02-24T10:59:39;14.20;;;5.90;;
16101;SDS011;56411;52.964;10.540;2023-02-24T11:02:45;11.03;;;5.03;;
16101;SDS011;56411;52.964;10.540;2023-02-24T11:05:34;11.90;;;5.93;;
16101;SDS011;56411;52.964;10.540;2023-02-24T11:08:13;11.97;;;5.77;;
16101;SDS011;56411;52.964;10.540;2023-02-24T11:11:00;10.87;;;5.53;;
16101;SDS011;56411;52.964;10.540;2023-02-24T11:13:32;11.97;;;5.23;;
16101;SDS011;56411;52.964;10.540;2023-02-24T11:16:19;10.23;;;5.07;;
16101;SDS011;56411;52.964;10.540;2023-02-24T11:19:04;11.87;;;5.77;;
16101;SDS011;56411;52.964;10.540;2023-02-24T11:21:32;11.20;;;5.10;;
16101;SDS011;56411;52.964;10.540;2023-02-24T11:24:14;11.57;;;5.30;;
16101;SDS011;56411;52.964;10.540;2023-02-24T11:26:46;13.17;;;5.33;;
16101;SDS011;56411;52.964;10.540;2023-02-24T11:29:19;12.17;;;5.70;;
16101;SDS011;56411;52.964;10.540;2023-02-24T11:32:11;10.10;;;5.17;;
16101;SDS011;56411;52.964;10.540;2023-02-24T11:34:51;10.50;;;5.40;;
16101;SDS011;56411;52.964;10.540;2023-02-24T11:37:33;11.30;;;5.90;;
16101;SDS011;56411;52.964;10.540;2023-02-24T11:40:06;11.67;;;5.23;;
16101;SDS011;56411;52.964;10.540;2023-02-24T11:42:41;11.50;;;5.50;;
16101;SDS011;56411;52.964;10.540;2023-02-24T11:45:17;10.80;;;5.13;;
16101;SDS011;56411;52.964;10.540;2023-02-24T11:47:54;10.53;;;5.47;;
16101;SDS011;56411;52.964;10.540;2023-02-24T11:50:27;10.73;;;5.40;;
16101;SDS011;56411;52.964;10.540;2023-02-24T11:53:02;11.87;;;6.10;;
16101;SDS011;56411;52.964;10.540;2023-02-24T11:55:40;11.60;;;5.73;;
16101;SDS011;56411;52.964;10.540;2023-02-24T11:58:13;11.83;;;5.60;;
16101;SDS011;56411;52.964;10.540;2023-02-24T12:00:47;12.40;;;5.63;;
16101;SDS011;56411;52.964;10.540;2023-02-24T12:03:22;11.27;;;5.37;;
16101;SDS011;56411;52.964;10.540;2023-02-24T12:06:07;12.60;;;5.70;;
16101;SDS011;56411;52.964;10.540;2023-02-24T12:08:40;12.67;;;5.80;;
16101;SDS011;56411;52.964;10.540;2023-02-24T12:11:14;11.20;;;5.27;;
16101;SDS011;56411;52.964;10.540;2023-02-24T12:13:48;11.43;;;5.23;;
16101;SDS011;56411;52.964;10.540;2023-02-24T12:16:20;12.33;;;5.37;;
16101;SDS011;56411;52.964;10.540;2023-02-24T12:18:51;12.43;;;5.73;;
16101;SDS011;56411;52.964;10.540;2023-02-24T12:21:25;12.70;;;5.50;;
16101;SDS011;56411;52.964;10.540;2023-02-24T12:23:58;12.70;;;6.37;;
16101;SDS011;56411;52.964;10.540;2023-02-24T12:26:29;11.23;;;5.83;;
16101;SDS011;56411;52.964;10.540;2023-02-24T12:32:07;13.13;;;6.20;;
16101;SDS011;56411;52.964;10.540;2023-02-24T12:34:46;10.90;;;5.70;;
16101;SDS011;56411;52.964;10.540;2023-02-24T12:37:27;13.30;;;5.67;;
16101;SDS011;56411;52.964;10.540;2023-02-24T12:40:15;12.20;;;5.87;;
16101;SDS011;56411;52.964;10.540;2023-02-24T12:42:58;13.07;;;5.77;;
16101;SDS011;56411;52.964;10.540;2023-02-24T12:45:36;11.73;;;6.10;;
16101;SDS011;56411;52.964;10.540;2023-02-24T12:48:13;11.00;;;5.00;;
16101;SDS011;56411;52.964;10.540;2023-02-24T12:50:55;11.37;;;5.67;;
16101;SDS011;56411;52.964;10.540;2023-02-24T12:53:31;12.77;;;6.07;;
16101;SDS011;56411;52.964;10.540;2023-02-24T12:56:05;12.63;;;6.20;;
16101;SDS011;56411;52.964;10.540;2023-02-24T12:58:43;12.10;;;6.27;;
16101;SDS011;56411;52.964;10.540;2023-02-24T13:01:19;11.60;;;6.00;;
16101;SDS011;56411;52.964;10.540;2023-02-24T13:06:51;13.30;;;6.80;;
16101;SDS011;56411;52.964;10.540;2023-02-24T13:09:26;12.90;;;6.10;;
16101;SDS011;56411;52.964;10.540;2023-02-24T13:12:02;11.93;;;6.73;;
16101;SDS011;56411;52.964;10.540;2023-02-24T13:14:39;12.23;;;6.60;;
16101;SDS011;56411;52.964;10.540;2023-02-24T13:17:16;13.17;;;7.23;;
16101;SDS011;56411;52.964;10.540;2023-02-24T13:19:45;13.77;;;7.07;;
16101;SDS011;56411;52.964;10.540;2023-02-24T13:22:24;13.90;;;7.63;;
16101;SDS011;56411;52.964;10.540;2023-02-24T13:25:11;13.10;;;7.07;;
16101;SDS011;56411;52.964;10.540;2023-02-24T13:27:53;13.60;;;7.03;;
16101;SDS011;56411;52.964;10.540;2023-02-24T13:30:26;14.43;;;7.67;;
16101;SDS011;56411;52.964;10.540;2023-02-24T13:33:02;13.80;;;7.30;;
16101;SDS011;56411;52.964;10.540;2023-02-24T13:35:33;12.13;;;6.37;;
16101;SDS011;56411;52.964;10.540;2023-02-24T13:38:08;13.87;;;7.20;;
16101;SDS011;56411;52.964;10.540;2023-02-24T13:40:48;13.83;;;7.70;;
16101;SDS011;56411;52.964;10.540;2023-02-24T13:43:22;14.70;;;8.20;;
16101;SDS011;56411;52.964;10.540;2023-02-24T13:45:55;14.40;;;7.97;;
16101;SDS011;56411;52.964;10.540;2023-02-24T13:48:28;15.03;;;8.17;;
16101;SDS011;56411;52.964;10.540;2023-02-24T13:51:12;18.10;;;8.73;;
16101;SDS011;56411;52.964;10.540;2023-02-24T13:53:56;13.83;;;7.30;;
16101;SDS011;56411;52.964;10.540;2023-02-24T13:56:36;15.50;;;8.33;;
16101;SDS011;56411;52.964;10.540;2023-02-24T13:59:15;15.37;;;8.20;;
16101;SDS011;56411;52.964;10.540;2023-02-24T14:02:00;14.93;;;7.83;;
16101;SDS011;56411;52.964;10.540;2023-02-24T14:04:32;15.07;;;8.70;;
16101;SDS011;56411;52.964;10.540;2023-02-24T14:07:03;18.03;;;9.50;;
16101;SDS011;56411;52.964;10.540;2023-02-24T14:09:36;17.43;;;9.37;;
16101;SDS011;56411;52.964;10.540;2023-02-24T14:12:13;16.10;;;9.03;;
16101;SDS011;56411;52.964;10.540;2023-02-24T14:14:46;16.50;;;9.20;;
16101;SDS011;56411;52.964;10.540;2023-02-24T14:17:21;16.50;;;9.03;;
16101;SDS011;56411;52.964;10.540;2023-02-24T14:19:52;18.53;;;9.87;;
16101;SDS011;56411;52.964;10.540;2023-02-24T14:22:20;15.83;;;9.17;;
16101;SDS011;56411;52.964;10.540;2023-02-24T14:24:47;16.93;;;10.10;;
16101;SDS011;56411;52.964;10.540;2023-02-24T14:27:18;20.00;;;11.10;;
16101;SDS011;56411;52.964;10.540;2023-02-24T14:29:51;17.43;;;10.27;;
16101;SDS011;56411;52.964;10.540;2023-02-24T14:32:20;18.20;;;11.57;;
16101;SDS011;56411;52.964;10.540;2023-02-24T14:34:49;17.53;;;11.47;;
16101;SDS011;56411;52.964;10.540;2023-02-24T14:37:17;19.17;;;10.77;;
16101;SDS011;56411;52.964;10.540;2023-02-24T14:39:50;19.67;;;10.73;;
16101;SDS011;56411;52.964;10.540;2023-02-24T14:42:18;20.77;;;11.10;;
16101;SDS011;56411;52.964;10.540;2023-02-24T14:44:46;19.90;;;11.73;;
16101;SDS011;56411;52.964;10.540;2023-02-24T14:47:15;21.47;;;11.03;;
16101;SDS011;56411;52.964;10.540;2023-02-24T14:49:54;21.03;;;10.60;;
16101;SDS011;56411;52.964;10.540;2023-02-24T14:52:25;22.13;;;11.60;;
16101;SDS011;56411;52.964;10.540;2023-02-24T14:54:59;22.13;;;12.50;;
16101;SDS011;56411;52.964;10.540;2023-02-24T14:57:30;24.03;;;11.80;;
16101;SDS011;56411;52.964;10.540;2023-02-24T15:00:04;20.33;;;11.60;;
16101;SDS011;56411;52.964;10.540;2023-02-24T15:02:37;21.83;;;13.73;;
16101;SDS011;56411;52.964;10.540;2023-02-24T15:05:08;23.97;;;13.87;;
16101;SDS011;56411;52.964;10.540;2023-02-24T15:07:36;28.73;;;13.80;;